sensor_id;sensor_type;location;lat;lon;timestamp;pressure;altitude;pressure_sealevel;temperature;humidity
77626;BME280;66794;43.764;10.436;2023-05-10T00:02:15;101403.03;;;17.29;100.00
77626;BME280;66794;43.764;10.436;2023-05-10T00:05:01;101394.75;;;17.22;100.00
77626;BME280;66794;43.764;10.436;2023-05-10T00:07:46;101402.34;;;17.20;100.00
77626;BME280;66794;43.764;10.436;2023-05-10T00:10:32;101393.03;;;17.08;100.00
77626;BME280;66794;43.764;10.436;2023-05-10T00:13:18;101389.69;;;17.13;100.00
77626;BME280;66794;43.764;10.436;2023-05-10T00:16:03;101384.63;;;17.09;100.00
77626;BME280;66794;43.764;10.436;2023-05-10T00:18:49;101377.97;;;16.91;100.00
77626;BME280;66794;43.764;10.436;2023-05-10T00:21:35;101369.78;;;16.91;100.00
77626;BME280;66794;43.764;10.436;2023-05-10T00:24:21;101365.44;;;17.03;100.00
77626;BME280;66794;43.764;10.436;2023-05-10T00:27:06;101356.38;;;17.02;100.00
77626;BME280;66794;43.764;10.436;2023-05-10T00:29:52;101349.28;;;17.21;100.00
77626;BME280;66794;43.764;10.436;2023-05-10T00:32:37;101340.47;;;17.32;100.00
77626;BME280;66794;43.764;10.436;2023-05-10T00:35:23;101340.09;;;17.49;100.00
77626;BME280;66794;43.764;10.436;2023-05-10T00:38:09;101336.50;;;17.42;100.00
77626;BME280;66794;43.764;10.436;2023-05-10T00:40:54;101327.41;;;17.28;100.00
77626;BME280;66794;43.764;10.436;2023-05-10T00:43:40;101321.28;;;17.26;100.00
77626;BME280;66794;43.764;10.436;2023-05-10T00:46:26;101317.13;;;17.37;100.00
77626;BME280;66794;43.764;10.436;2023-05-10T00:49:12;101300.78;;;16.95;100.00
77626;BME280;66794;43.764;10.436;2023-05-10T00:51:58;101304.47;;;16.74;100.00
77626;BME280;66794;43.764;10.436;2023-05-10T00:54:43;101292.28;;;16.77;100.00
77626;BME280;66794;43.764;10.436;2023-05-10T00:57:29;101289.44;;;16.98;100.00
77626;BME280;66794;43.764;10.436;2023-05-10T01:00:15;101281.47;;;17.17;100.00
77626;BME280;66794;43.764;10.436;2023-05-10T01:03:03;101282.75;;;17.21;100.00
77626;BME280;66794;43.764;10.436;2023-05-10T01:05:49;101275.38;;;17.21;100.00
77626;BME280;66794;43.764;10.436;2023-05-10T01:08:35;101268.84;;;17.22;100.00
77626;BME280;66794;43.764;10.436;2023-05-10T01:11:21;101267.19;;;17.28;100.00
77626;BME280;66794;43.764;10.436;2023-05-10T01:14:07;101265.06;;;17.17;100.00
77626;BME280;66794;43.764;10.436;2023-05-10T01:16:53;101260.47;;;17.24;100.00
77626;BME280;66794;43.764;10.436;2023-05-10T01:19:39;101265.16;;;16.82;100.00
77626;BME280;66794;43.764;10.436;2023-05-10T01:42:36;101249.63;;;16.89;100.00
77626;BME280;66794;43.764;10.436;2023-05-10T01:45:33;101242.28;;;16.48;100.00
77626;BME280;66794;43.764;10.436;2023-05-10T01:48:22;101228.53;;;16.35;100.00
77626;BME280;66794;43.764;10.436;2023-05-10T01:51:08;101227.13;;;16.46;100.00
77626;BME280;66794;43.764;10.436;2023-05-10T01:53:58;101243.72;;;16.44;100.00
77626;BME280;66794;43.764;10.436;2023-05-10T01:56:46;101259.72;;;16.13;100.00
77626;BME280;66794;43.764;10.436;2023-05-10T01:59:34;101265.44;;;16.18;100.00
77626;BME280;66794;43.764;10.436;2023-05-10T02:02:27;101262.56;;;16.26;100.00
77626;BME280;66794;43.764;10.436;2023-05-10T02:05:14;101260.06;;;16.31;100.00
77626;BME280;66794;43.764;10.436;2023-05-10T02:08:00;101256.19;;;16.19;100.00
77626;BME280;66794;43.764;10.436;2023-05-10T02:10:47;101260.84;;;16.25;100.00
77626;BME280;66794;43.764;10.436;2023-05-10T02:13:34;101253.72;;;16.24;100.00
77626;BME280;66794;43.764;10.436;2023-05-10T02:16:23;101260.50;;;16.35;100.00
77626;BME280;66794;43.764;10.436;2023-05-10T02:19:10;101258.84;;;16.40;100.00
77626;BME280;66794;43.764;10.436;2023-05-10T02:21:57;101259.28;;;16.44;100.00
77626;BME280;66794;43.764;10.436;2023-05-10T02:24:43;101263.31;;;16.48;100.00
77626;BME280;66794;43.764;10.436;2023-05-10T02:27:30;101261.66;;;16.53;100.00
77626;BME280;66794;43.764;10.436;2023-05-10T02:30:16;101253.63;;;16.52;100.00
77626;BME280;66794;43.764;10.436;2023-05-10T02:33:04;101253.38;;;16.75;100.00
77626;BME280;66794;43.764;10.436;2023-05-10T02:35:50;101246.63;;;16.71;100.00
77626;BME280;66794;43.764;10.436;2023-05-10T02:38:36;101244.56;;;16.86;100.00
77626;BME280;66794;43.764;10.436;2023-05-10T02:41:22;101238.66;;;16.89;100.00
77626;BME280;66794;43.764;10.436;2023-05-10T02:44:08;101237.16;;;16.73;100.00
77626;BME280;66794;43.764;10.436;2023-05-10T02:46:54;101229.16;;;16.72;100.00
77626;BME280;66794;43.764;10.436;2023-05-10T02:49:41;101225.38;;;16.79;100.00
77626;BME280;66794;43.764;10.436;2023-05-10T02:52:28;101216.16;;;16.87;100.00
77626;BME280;66794;43.764;10.436;2023-05-10T02:55:15;101218.03;;;16.80;100.00
77626;BME280;66794;43.764;10.436;2023-05-10T02:58:01;101215.09;;;16.88;100.00
77626;BME280;66794;43.764;10.436;2023-05-10T03:00:47;101215.34;;;16.93;100.00
77626;BME280;66794;43.764;10.436;2023-05-10T03:03:33;101217.22;;;16.86;100.00
77626;BME280;66794;43.764;10.436;2023-05-10T03:06:18;101215.59;;;16.57;100.00
77626;BME280;66794;43.764;10.436;2023-05-10T03:09:04;101211.69;;;16.79;100.00
77626;BME280;66794;43.764;10.436;2023-05-10T03:20:27;101197.81;;;16.26;100.00
77626;BME280;66794;43.764;10.436;2023-05-10T03:26:03;101193.91;;;16.49;100.00
77626;BME280;66794;43.764;10.436;2023-05-10T03:28:50;101184.66;;;16.43;100.00
77626;BME280;66794;43.764;10.436;2023-05-10T03:31:36;101188.53;;;16.21;100.00
77626;BME280;66794;43.764;10.436;2023-05-10T03:34:25;101181.00;;;16.29;100.00
77626;BME280;66794;43.764;10.436;2023-05-10T03:37:10;101178.69;;;16.26;100.00
77626;BME280;66794;43.764;10.436;2023-05-10T03:39:56;101183.72;;;16.23;100.00
77626;BME280;66794;43.764;10.436;2023-05-10T03:42:42;101184.63;;;16.37;100.00
77626;BME280;66794;43.764;10.436;2023-05-10T03:45:27;101179.34;;;16.35;100.00
77626;BME280;66794;43.764;10.436;2023-05-10T03:48:13;101174.03;;;16.20;100.00
77626;BME280;66794;43.764;10.436;2023-05-10T03:50:59;101173.38;;;16.18;100.00
77626;BME280;66794;43.764;10.436;2023-05-10T03:53:45;101163.19;;;16.47;100.00
77626;BME280;66794;43.764;10.436;2023-05-10T03:56:30;101165.31;;;16.51;100.00
77626;BME280;66794;43.764;10.436;2023-05-10T03:59:16;101159.63;;;16.46;100.00
77626;BME280;66794;43.764;10.436;2023-05-10T04:02:02;101157.69;;;16.34;100.00
77626;BME280;66794;43.764;10.436;2023-05-10T04:04:48;101150.38;;;16.47;100.00
77626;BME280;66794;43.764;10.436;2023-05-10T04:07:33;101152.81;;;16.29;100.00
77626;BME280;66794;43.764;10.436;2023-05-10T04:10:19;101148.16;;;16.16;100.00
77626;BME280;66794;43.764;10.436;2023-05-10T04:13:04;101151.59;;;16.32;100.00
77626;BME280;66794;43.764;10.436;2023-05-10T04:15:50;101146.75;;;16.34;100.00
77626;BME280;66794;43.764;10.436;2023-05-10T04:18:36;101145.22;;;16.18;100.00
77626;BME280;66794;43.764;10.436;2023-05-10T04:21:21;101147.19;;;15.89;100.00
77626;BME280;66794;43.764;10.436;2023-05-10T04:24:07;101131.31;;;16.13;100.00
77626;BME280;66794;43.764;10.436;2023-05-10T04:26:53;101143.28;;;16.05;100.00
77626;BME280;66794;43.764;10.436;2023-05-10T04:29:39;101134.28;;;16.18;100.00
77626;BME280;66794;43.764;10.436;2023-05-10T04:32:24;101137.47;;;16.28;100.00
77626;BME280;66794;43.764;10.436;2023-05-10T04:35:10;101131.19;;;16.34;100.00
77626;BME280;66794;43.764;10.436;2023-05-10T04:37:56;101131.16;;;16.21;100.00
77626;BME280;66794;43.764;10.436;2023-05-10T04:40:41;101133.47;;;16.30;100.00
77626;BME280;66794;43.764;10.436;2023-05-10T04:43:27;101125.75;;;16.41;100.00
77626;BME280;66794;43.764;10.436;2023-05-10T04:46:12;101123.19;;;16.26;100.00
77626;BME280;66794;43.764;10.436;2023-05-10T04:48:58;101128.81;;;16.18;100.00
77626;BME280;66794;43.764;10.436;2023-05-10T04:51:44;101120.59;;;16.11;100.00
77626;BME280;66794;43.764;10.436;2023-05-10T04:54:29;101128.56;;;16.06;100.00
77626;BME280;66794;43.764;10.436;2023-05-10T04:57:15;101123.13;;;16.19;100.00
77626;BME280;66794;43.764;10.436;2023-05-10T05:00:01;101129.00;;;16.10;100.00
77626;BME280;66794;43.764;10.436;2023-05-10T05:02:47;101128.81;;;16.18;100.00
77626;BME280;66794;43.764;10.436;2023-05-10T05:05:32;101118.00;;;15.96;100.00
77626;BME280;66794;43.764;10.436;2023-05-10T05:08:18;101124.88;;;15.86;100.00
77626;BME280;66794;43.764;10.436;2023-05-10T05:11:04;101118.56;;;15.78;100.00
77626;BME280;66794;43.764;10.436;2023-05-10T05:13:49;101114.03;;;15.99;100.00
77626;BME280;66794;43.764;10.436;2023-05-10T05:16:35;101112.16;;;16.06;100.00
77626;BME280;66794;43.764;10.436;2023-05-10T05:19:21;101107.81;;;16.25;100.00
77626;BME280;66794;43.764;10.436;2023-05-10T05:22:06;101114.56;;;16.29;100.00
77626;BME280;66794;43.764;10.436;2023-05-10T05:24:56;101115.38;;;16.23;100.00
77626;BME280;66794;43.764;10.436;2023-05-10T05:27:43;101113.72;;;16.22;100.00
77626;BME280;66794;43.764;10.436;2023-05-10T05:30:29;101125.09;;;16.32;100.00
77626;BME280;66794;43.764;10.436;2023-05-10T05:33:14;101115.63;;;16.28;100.00
77626;BME280;66794;43.764;10.436;2023-05-10T05:36:03;101113.75;;;16.35;100.00
77626;BME280;66794;43.764;10.436;2023-05-10T05:38:49;101107.28;;;16.49;100.00
77626;BME280;66794;43.764;10.436;2023-05-10T05:41:35;101115.28;;;16.57;100.00
77626;BME280;66794;43.764;10.436;2023-05-10T05:44:21;101111.34;;;16.73;100.00
77626;BME280;66794;43.764;10.436;2023-05-10T05:47:06;101112.00;;;16.82;100.00
77626;BME280;66794;43.764;10.436;2023-05-10T05:49:52;101110.09;;;16.76;100.00
77626;BME280;66794;43.764;10.436;2023-05-10T05:52:37;101108.56;;;16.60;100.00
77626;BME280;66794;43.764;10.436;2023-05-10T05:55:23;101112.63;;;16.77;100.00
77626;BME280;66794;43.764;10.436;2023-05-10T05:58:09;101113.38;;;16.51;100.00
77626;BME280;66794;43.764;10.436;2023-05-10T06:00:55;101114.84;;;16.47;100.00
77626;BME280;66794;43.764;10.436;2023-05-10T06:03:40;101117.75;;;16.39;100.00
77626;BME280;66794;43.764;10.436;2023-05-10T06:06:26;101117.97;;;16.38;100.00
77626;BME280;66794;43.764;10.436;2023-05-10T06:09:12;101122.59;;;16.44;100.00
77626;BME280;66794;43.764;10.436;2023-05-10T06:11:57;101117.97;;;16.38;100.00
77626;BME280;66794;43.764;10.436;2023-05-10T06:14:43;101107.88;;;16.45;100.00
77626;BME280;66794;43.764;10.436;2023-05-10T06:17:29;101118.66;;;16.53;100.00
77626;BME280;66794;43.764;10.436;2023-05-10T06:20:15;101119.25;;;16.48;100.00
77626;BME280;66794;43.764;10.436;2023-05-10T06:23:00;101126.41;;;16.43;100.00
77626;BME280;66794;43.764;10.436;2023-05-10T06:25:46;101125.56;;;16.42;100.00
77626;BME280;66794;43.764;10.436;2023-05-10T06:28:32;101127.50;;;16.07;100.00
77626;BME280;66794;43.764;10.436;2023-05-10T06:31:18;101118.72;;;16.18;100.00
77626;BME280;66794;43.764;10.436;2023-05-10T06:34:04;101122.66;;;16.02;100.00
77626;BME280;66794;43.764;10.436;2023-05-10T06:36:50;101115.47;;;15.95;100.00
77626;BME280;66794;43.764;10.436;2023-05-10T06:39:35;101117.75;;;15.91;100.00
77626;BME280;66794;43.764;10.436;2023-05-10T06:42:21;101129.34;;;15.93;100.00
77626;BME280;66794;43.764;10.436;2023-05-10T06:45:07;101117.00;;;16.04;100.00
77626;BME280;66794;43.764;10.436;2023-05-10T06:47:52;101124.63;;;16.15;100.00
77626;BME280;66794;43.764;10.436;2023-05-10T06:50:38;101115.53;;;16.08;100.00
77626;BME280;66794;43.764;10.436;2023-05-10T06:53:24;101111.59;;;16.17;100.00
77626;BME280;66794;43.764;10.436;2023-05-10T06:56:09;101118.31;;;16.15;100.00
77626;BME280;66794;43.764;10.436;2023-05-10T06:58:55;101115.13;;;16.11;100.00
77626;BME280;66794;43.764;10.436;2023-05-10T07:01:41;101110.13;;;16.15;100.00
77626;BME280;66794;43.764;10.436;2023-05-10T07:04:26;101118.31;;;16.15;100.00
77626;BME280;66794;43.764;10.436;2023-05-10T07:07:13;101109.72;;;16.24;100.00
77626;BME280;66794;43.764;10.436;2023-05-10T07:09:59;101116.59;;;16.14;100.00
77626;BME280;66794;43.764;10.436;2023-05-10T07:12:44;101109.47;;;16.19;100.00
77626;BME280;66794;43.764;10.436;2023-05-10T07:15:30;101103.00;;;16.27;100.00
77626;BME280;66794;43.764;10.436;2023-05-10T07:18:16;101101.94;;;16.28;100.00
77626;BME280;66794;43.764;10.436;2023-05-10T07:21:02;101103.00;;;16.27;100.00
77626;BME280;66794;43.764;10.436;2023-05-10T07:23:48;101101.13;;;16.27;100.00
77626;BME280;66794;43.764;10.436;2023-05-10T07:26:33;101103.25;;;16.45;100.00
77626;BME280;66794;43.764;10.436;2023-05-10T07:29:19;101095.28;;;16.50;100.00
77626;BME280;66794;43.764;10.436;2023-05-10T07:32:05;101093.81;;;16.54;100.00
77626;BME280;66794;43.764;10.436;2023-05-10T07:34:51;101087.94;;;16.57;100.00
77626;BME280;66794;43.764;10.436;2023-05-10T07:37:37;101088.84;;;16.78;100.00
77626;BME280;66794;43.764;10.436;2023-05-10T07:40:22;101082.72;;;16.69;100.00
77626;BME280;66794;43.764;10.436;2023-05-10T07:43:08;101084.22;;;16.78;100.00
77626;BME280;66794;43.764;10.436;2023-05-10T07:45:54;101083.59;;;16.76;100.00
77626;BME280;66794;43.764;10.436;2023-05-10T07:48:41;101081.84;;;16.69;100.00
77626;BME280;66794;43.764;10.436;2023-05-10T07:51:26;101089.28;;;16.75;100.00
77626;BME280;66794;43.764;10.436;2023-05-10T07:54:13;101084.38;;;16.64;100.00
77626;BME280;66794;43.764;10.436;2023-05-10T07:56:59;101094.50;;;16.70;100.00
77626;BME280;66794;43.764;10.436;2023-05-10T07:59:45;101093.22;;;16.66;100.00
77626;BME280;66794;43.764;10.436;2023-05-10T08:02:31;101103.78;;;16.82;100.00
77626;BME280;66794;43.764;10.436;2023-05-10T08:05:16;101073.41;;;16.57;100.00
77626;BME280;66794;43.764;10.436;2023-05-10T08:08:02;101093.38;;;16.44;100.00
77626;BME280;66794;43.764;10.436;2023-05-10T08:10:48;101092.56;;;16.50;100.00
77626;BME280;66794;43.764;10.436;2023-05-10T08:13:33;101090.25;;;16.54;100.00
77626;BME280;66794;43.764;10.436;2023-05-10T08:16:19;101095.09;;;16.59;100.00
77626;BME280;66794;43.764;10.436;2023-05-10T08:19:05;101096.75;;;16.46;100.00
77626;BME280;66794;43.764;10.436;2023-05-10T08:21:51;101105.59;;;16.48;100.00
77626;BME280;66794;43.764;10.436;2023-05-10T08:24:37;101096.34;;;16.56;100.00
77626;BME280;66794;43.764;10.436;2023-05-10T08:27:23;101104.09;;;16.46;100.00
77626;BME280;66794;43.764;10.436;2023-05-10T08:30:09;101103.25;;;16.45;100.00
77626;BME280;66794;43.764;10.436;2023-05-10T08:32:55;101095.28;;;16.50;100.00
77626;BME280;66794;43.764;10.436;2023-05-10T08:35:40;101095.50;;;16.49;100.00
77626;BME280;66794;43.764;10.436;2023-05-10T08:38:26;101099.00;;;16.29;100.00
77626;BME280;66794;43.764;10.436;2023-05-10T08:41:12;101099.03;;;16.36;100.00
77626;BME280;66794;43.764;10.436;2023-05-10T08:43:58;101098.41;;;16.34;100.00
77626;BME280;66794;43.764;10.436;2023-05-10T08:46:45;101096.94;;;16.38;100.00
77626;BME280;66794;43.764;10.436;2023-05-10T08:49:38;101096.94;;;16.45;100.00
77626;BME280;66794;43.764;10.436;2023-05-10T08:52:25;101087.91;;;16.38;100.00
77626;BME280;66794;43.764;10.436;2023-05-10T08:55:11;101090.44;;;16.52;100.00
77626;BME280;66794;43.764;10.436;2023-05-10T08:57:57;101081.44;;;16.59;100.00
77626;BME280;66794;43.764;10.436;2023-05-10T09:00:43;101090.88;;;16.56;100.00
77626;BME280;66794;43.764;10.436;2023-05-10T09:03:29;101084.13;;;16.45;100.00
77626;BME280;66794;43.764;10.436;2023-05-10T09:06:15;101093.41;;;16.57;100.00
77626;BME280;66794;43.764;10.436;2023-05-10T09:09:01;101083.06;;;16.40;100.00
77626;BME280;66794;43.764;10.436;2023-05-10T09:11:47;101079.03;;;16.29;100.00
77626;BME280;66794;43.764;10.436;2023-05-10T09:14:33;101086.03;;;16.51;100.00
77626;BME280;66794;43.764;10.436;2023-05-10T09:17:21;101091.34;;;16.73;100.00
77626;BME280;66794;43.764;10.436;2023-05-10T09:20:08;101082.31;;;16.79;100.00
77626;BME280;66794;43.764;10.436;2023-05-10T09:22:54;101079.56;;;16.72;100.00
77626;BME280;66794;43.764;10.436;2023-05-10T09:25:41;101083.53;;;16.63;100.00
77626;BME280;66794;43.764;10.436;2023-05-10T09:28:27;101073.00;;;16.60;100.00
77626;BME280;66794;43.764;10.436;2023-05-10T09:31:12;101079.94;;;16.63;100.00
77626;BME280;66794;43.764;10.436;2023-05-10T09:33:58;101077.91;;;16.71;100.00
77626;BME280;66794;43.764;10.436;2023-05-10T09:36:50;101082.31;;;16.79;100.00
77626;BME280;66794;43.764;10.436;2023-05-10T09:39:37;101070.97;;;16.95;100.00
77626;BME280;66794;43.764;10.436;2023-05-10T09:42:22;101068.44;;;16.94;100.00
77626;BME280;66794;43.764;10.436;2023-05-10T09:45:08;101070.56;;;16.92;100.00
77626;BME280;66794;43.764;10.436;2023-05-10T09:47:54;101067.59;;;17.00;100.00
77626;BME280;66794;43.764;10.436;2023-05-10T09:50:40;101062.56;;;17.03;100.00
77626;BME280;66794;43.764;10.436;2023-05-10T09:53:27;101064.19;;;17.38;100.00
77626;BME280;66794;43.764;10.436;2023-05-10T09:56:12;101059.16;;;17.34;100.00
77626;BME280;66794;43.764;10.436;2023-05-10T09:59:04;101055.31;;;17.49;100.00
77626;BME280;66794;43.764;10.436;2023-05-10T10:01:50;101053.63;;;17.48;100.00
77626;BME280;66794;43.764;10.436;2023-05-10T10:04:39;101051.78;;;17.35;100.00
77626;BME280;66794;43.764;10.436;2023-05-10T10:07:24;101045.66;;;17.46;100.00
77626;BME280;66794;43.764;10.436;2023-05-10T10:10:10;101045.41;;;17.54;100.00
77626;BME280;66794;43.764;10.436;2023-05-10T10:12:57;101044.13;;;17.64;100.00
77626;BME280;66794;43.764;10.436;2023-05-10T10:15:43;101043.91;;;17.65;100.00
77626;BME280;66794;43.764;10.436;2023-05-10T10:18:30;101042.66;;;17.54;100.00
77626;BME280;66794;43.764;10.436;2023-05-10T10:21:16;101040.78;;;17.48;100.00
77626;BME280;66794;43.764;10.436;2023-05-10T10:24:02;101040.44;;;17.25;100.00
77626;BME280;66794;43.764;10.436;2023-05-10T10:26:50;101043.38;;;17.17;100.00
77626;BME280;66794;43.764;10.436;2023-05-10T10:29:47;101042.50;;;17.36;100.00
77626;BME280;66794;43.764;10.436;2023-05-10T10:35:39;101044.25;;;17.04;100.00
77626;BME280;66794;43.764;10.436;2023-05-10T10:38:25;101045.91;;;17.12;100.00
77626;BME280;66794;43.764;10.436;2023-05-10T10:41:26;101046.56;;;17.14;100.00
77626;BME280;66794;43.764;10.436;2023-05-10T10:47:25;101040.25;;;16.93;100.00
77626;BME280;66794;43.764;10.436;2023-05-10T10:50:16;101046.56;;;16.94;100.00
77626;BME280;66794;43.764;10.436;2023-05-10T10:53:10;101040.44;;;17.12;100.00
77626;BME280;66794;43.764;10.436;2023-05-10T10:56:02;101042.56;;;16.76;100.00
77626;BME280;66794;43.764;10.436;2023-05-10T10:58:56;101043.16;;;16.59;100.00
77626;BME280;66794;43.764;10.436;2023-05-10T11:01:45;101044.25;;;16.77;100.00
77626;BME280;66794;43.764;10.436;2023-05-10T11:04:43;101027.41;;;16.74;100.00
77626;BME280;66794;43.764;10.436;2023-05-10T11:07:31;101037.28;;;16.88;100.00
77626;BME280;66794;43.764;10.436;2023-05-10T11:10:19;101035.19;;;16.90;100.00
77626;BME280;66794;43.764;10.436;2023-05-10T11:13:06;101036.66;;;16.99;100.00
77626;BME280;66794;43.764;10.436;2023-05-10T11:15:52;101035.63;;;16.80;100.00
77626;BME280;66794;43.764;10.436;2023-05-10T11:18:37;101036.00;;;17.11;100.00
77626;BME280;66794;43.764;10.436;2023-05-10T11:21:23;100994.34;;;17.08;100.00
77626;BME280;66794;43.764;10.436;2023-05-10T11:24:12;101037.06;;;17.29;100.00
77626;BME280;66794;43.764;10.436;2023-05-10T11:26:58;101033.25;;;17.37;100.00
77626;BME280;66794;43.764;10.436;2023-05-10T11:29:44;101036.16;;;17.49;100.00
77626;BME280;66794;43.764;10.436;2023-05-10T11:32:30;101034.28;;;17.36;100.00
77626;BME280;66794;43.764;10.436;2023-05-10T11:35:16;101029.88;;;17.35;100.00
77626;BME280;66794;43.764;10.436;2023-05-10T11:38:02;101034.69;;;17.40;100.00
77626;BME280;66794;43.764;10.436;2023-05-10T11:40:47;101032.16;;;17.51;100.00
77626;BME280;66794;43.764;10.436;2023-05-10T11:43:37;101033.47;;;17.22;100.00
77626;BME280;66794;43.764;10.436;2023-05-10T11:46:24;101034.72;;;17.33;100.00
77626;BME280;66794;43.764;10.436;2023-05-10T11:49:11;101035.16;;;17.23;100.00
77626;BME280;66794;43.764;10.436;2023-05-10T11:52:05;101037.44;;;17.33;100.00
77626;BME280;66794;43.764;10.436;2023-05-10T11:54:51;101045.25;;;17.23;100.00
77626;BME280;66794;43.764;10.436;2023-05-10T11:57:38;101041.03;;;17.27;100.00
77626;BME280;66794;43.764;10.436;2023-05-10T12:00:27;101038.34;;;17.14;100.00
77626;BME280;66794;43.764;10.436;2023-05-10T12:03:13;101043.19;;;17.18;100.00
77626;BME280;66794;43.764;10.436;2023-05-10T12:05:59;101042.97;;;17.00;100.00
77626;BME280;66794;43.764;10.436;2023-05-10T12:08:46;101043.81;;;17.14;100.00
77626;BME280;66794;43.764;10.436;2023-05-10T12:11:35;101036.47;;;17.07;100.00
77626;BME280;66794;43.764;10.436;2023-05-10T12:14:21;101048.66;;;16.98;100.00
77626;BME280;66794;43.764;10.436;2023-05-10T12:17:11;101045.28;;;16.83;100.00
77626;BME280;66794;43.764;10.436;2023-05-10T12:20:15;101046.34;;;16.82;100.00
77626;BME280;66794;43.764;10.436;2023-05-10T12:23:01;101056.19;;;16.63;100.00
77626;BME280;66794;43.764;10.436;2023-05-10T12:25:48;101043.28;;;16.30;100.00
77626;BME280;66794;43.764;10.436;2023-05-10T12:28:34;101044.47;;;15.95;100.00
77626;BME280;66794;43.764;10.436;2023-05-10T12:31:20;101047.75;;;15.77;100.00
77626;BME280;66794;43.764;10.436;2023-05-10T12:34:06;101039.75;;;15.75;100.00
77626;BME280;66794;43.764;10.436;2023-05-10T12:36:53;101034.09;;;15.77;100.00
77626;BME280;66794;43.764;10.436;2023-05-10T12:39:43;101025.50;;;15.80;100.00
77626;BME280;66794;43.764;10.436;2023-05-10T12:42:29;101033.91;;;15.85;100.00
77626;BME280;66794;43.764;10.436;2023-05-10T12:45:17;101043.19;;;15.91;100.00
77626;BME280;66794;43.764;10.436;2023-05-10T12:48:03;101044.25;;;15.96;100.00
77626;BME280;66794;43.764;10.436;2023-05-10T12:50:48;101053.81;;;16.20;100.00
77626;BME280;66794;43.764;10.436;2023-05-10T12:53:34;101046.84;;;16.18;100.00
77626;BME280;66794;43.764;10.436;2023-05-10T12:56:20;101037.59;;;16.25;100.00
77626;BME280;66794;43.764;10.436;2023-05-10T12:59:06;101040.81;;;16.42;100.00
77626;BME280;66794;43.764;10.436;2023-05-10T13:01:51;101028.63;;;16.51;100.00
77626;BME280;66794;43.764;10.436;2023-05-10T13:04:37;101034.97;;;16.59;100.00
77626;BME280;66794;43.764;10.436;2023-05-10T13:07:25;101028.44;;;16.60;100.00
77626;BME280;66794;43.764;10.436;2023-05-10T13:10:10;101026.97;;;16.64;100.00
77626;BME280;66794;43.764;10.436;2023-05-10T13:12:57;101025.91;;;16.65;100.00
77626;BME280;66794;43.764;10.436;2023-05-10T13:15:43;101021.91;;;16.61;100.00
77626;BME280;66794;43.764;10.436;2023-05-10T13:18:32;101020.63;;;16.43;100.00
77626;BME280;66794;43.764;10.436;2023-05-10T13:21:17;101007.81;;;16.57;100.00
77626;BME280;66794;43.764;10.436;2023-05-10T13:24:03;101005.06;;;16.44;100.00
77626;BME280;66794;43.764;10.436;2023-05-10T13:26:49;100992.47;;;16.49;100.00
77626;BME280;66794;43.764;10.436;2023-05-10T13:29:34;100985.09;;;16.56;100.00
77626;BME280;66794;43.764;10.436;2023-05-10T13:32:20;100975.19;;;16.62;100.00
77626;BME280;66794;43.764;10.436;2023-05-10T13:35:06;100978.16;;;16.67;100.00
77626;BME280;66794;43.764;10.436;2023-05-10T13:37:52;100973.97;;;16.71;100.00
77626;BME280;66794;43.764;10.436;2023-05-10T13:40:38;100976.72;;;16.78;100.00
77626;BME280;66794;43.764;10.436;2023-05-10T13:43:24;100963.66;;;16.87;100.00
77626;BME280;66794;43.764;10.436;2023-05-10T13:46:10;100963.63;;;17.00;100.00
77626;BME280;66794;43.764;10.436;2023-05-10T13:48:55;100969.91;;;17.07;100.00
77626;BME280;66794;43.764;10.436;2023-05-10T13:51:42;100966.09;;;17.28;100.00
77626;BME280;66794;43.764;10.436;2023-05-10T13:54:28;100980.75;;;17.53;100.00
77626;BME280;66794;43.764;10.436;2023-05-10T13:57:15;100960.66;;;17.66;100.00
77626;BME280;66794;43.764;10.436;2023-05-10T14:00:02;100958.34;;;17.70;100.00
77626;BME280;66794;43.764;10.436;2023-05-10T14:02:47;100964.22;;;17.80;100.00
77626;BME280;66794;43.764;10.436;2023-05-10T14:05:33;100956.94;;;17.99;100.00
77626;BME280;66794;43.764;10.436;2023-05-10T14:08:19;100958.09;;;17.84;100.00
77626;BME280;66794;43.764;10.436;2023-05-10T14:11:05;100950.44;;;18.00;100.00
77626;BME280;66794;43.764;10.436;2023-05-10T14:13:51;100957.09;;;18.10;100.00
77626;BME280;66794;43.764;10.436;2023-05-10T14:16:36;100960.31;;;18.01;100.00
77626;BME280;66794;43.764;10.436;2023-05-10T14:19:22;100964.78;;;17.95;100.00
77626;BME280;66794;43.764;10.436;2023-05-10T14:22:08;100969.75;;;17.73;100.00
77626;BME280;66794;43.764;10.436;2023-05-10T14:24:53;100976.88;;;17.81;100.00
77626;BME280;66794;43.764;10.436;2023-05-10T14:27:39;100984.34;;;17.47;100.00
77626;BME280;66794;43.764;10.436;2023-05-10T14:30:25;100983.34;;;17.35;100.00
77626;BME280;66794;43.764;10.436;2023-05-10T14:33:11;100983.34;;;17.35;100.00
77626;BME280;66794;43.764;10.436;2023-05-10T14:35:56;100988.41;;;17.31;100.00
77626;BME280;66794;43.764;10.436;2023-05-10T14:38:42;100996.41;;;17.26;100.00
77626;BME280;66794;43.764;10.436;2023-05-10T14:41:28;100997.03;;;17.28;100.00
77626;BME280;66794;43.764;10.436;2023-05-10T14:44:15;100990.88;;;17.46;100.00
77626;BME280;66794;43.764;10.436;2023-05-10T14:47:01;101004.19;;;17.23;100.00